Terminal Aerodrome Forecast
Issued by NWS

Home | Current Version | Previous Version | Text Only | Print | Product List | Glossary On
Versions: 1 2 3 4 5 6 7 8 9 10 11 12 13 14 15 16 17 18 19 20
000
FTUS45 KPIH 241700
TAFSUN
TAF
KSUN 241720Z 2418/2518 VRB06KT 3SM -RASN SCT010 OVC020
      TEMPO 2418/2419 2SM -SN BR BKN005 OVC010
     FM241900 15008KT P6SM VCSH BKN030 OVC060
     FM250300 33007KT P6SM VCSH SCT010 OVC030
     FM250800 VRB05KT 4SM -RASN BR BKN010 OVC020=

USA.gov is the U.S. government's official web portal to all federal, state and local government web resources and services.